createdAt,value
2019-03-19T00:01:04.580Z,12.73
2019-03-19T00:03:33.514Z,14.50
2019-03-19T00:06:02.334Z,20.97
2019-03-19T00:08:31.155Z,8.00
2019-03-19T00:10:59.949Z,13.57
2019-03-19T00:13:28.735Z,16.00
2019-03-19T00:15:57.551Z,18.13
2019-03-19T00:18:26.629Z,16.47
2019-03-19T00:20:55.496Z,15.83
2019-03-19T00:23:24.334Z,15.63
2019-03-19T00:25:53.281Z,16.13
2019-03-19T00:28:22.056Z,17.53
2019-03-19T00:30:51.519Z,12.90
2019-03-19T00:33:20.388Z,12.70
2019-03-19T00:35:49.199Z,15.13
2019-03-19T00:38:18.021Z,6.90
2019-03-19T00:40:46.845Z,12.30
2019-03-19T00:43:15.840Z,16.97
2019-03-19T00:45:44.779Z,12.40
2019-03-19T00:48:13.687Z,17.27
2019-03-19T00:50:42.519Z,11.77
2019-03-19T00:53:11.449Z,13.33
2019-03-19T00:55:41.157Z,17.43
2019-03-19T00:58:10.058Z,13.73
2019-03-19T01:00:38.950Z,18.40
2019-03-19T01:03:07.926Z,9.03
2019-03-19T01:16:24.973Z,13.73
2019-03-19T01:18:53.894Z,7.33
2019-03-19T01:21:22.705Z,14.23
2019-03-19T01:23:51.549Z,15.87
2019-03-19T01:26:20.371Z,15.03
2019-03-19T01:28:49.281Z,9.63
2019-03-19T01:31:18.148Z,12.40
2019-03-19T01:33:46.962Z,13.67
2019-03-19T01:36:15.766Z,10.37
2019-03-19T01:38:44.552Z,12.03
2019-03-19T01:41:13.479Z,17.63
2019-03-19T01:43:42.336Z,15.33
2019-03-19T01:46:11.211Z,14.43
2019-03-19T01:48:40.097Z,11.33
2019-03-19T01:51:08.924Z,14.97
2019-03-19T01:53:37.716Z,13.50
2019-03-19T01:56:06.528Z,11.67
2019-03-19T01:58:35.418Z,13.27
2019-03-19T02:01:04.478Z,8.83
2019-03-19T02:03:33.299Z,12.30
2019-03-19T02:06:02.220Z,15.37
2019-03-19T02:08:30.991Z,14.63
2019-03-19T02:11:02.139Z,8.03
2019-03-19T02:13:30.928Z,9.57
2019-03-19T02:15:59.840Z,14.87
2019-03-19T02:18:28.712Z,12.70
2019-03-19T02:20:59.022Z,10.73
2019-03-19T02:23:29.140Z,14.63
2019-03-19T02:25:58.077Z,13.90
2019-03-19T02:28:26.910Z,10.03
2019-03-19T02:30:55.858Z,14.27
2019-03-19T02:33:24.711Z,13.23
2019-03-19T02:35:53.592Z,16.50
2019-03-19T02:38:22.501Z,10.90
2019-03-19T02:40:52.208Z,11.03
2019-03-19T02:43:22.839Z,13.23
2019-03-19T02:45:51.551Z,9.83
2019-03-19T02:48:20.637Z,9.60
2019-03-19T02:50:49.432Z,12.70
2019-03-19T02:53:21.328Z,12.20
2019-03-19T02:55:50.180Z,7.87
2019-03-19T02:58:18.983Z,10.00
2019-03-19T03:00:49.448Z,11.93
2019-03-19T03:03:18.233Z,12.73
2019-03-19T03:05:47.266Z,20.40
2019-03-19T03:08:16.101Z,11.23
2019-03-19T03:10:45.112Z,10.40
2019-03-19T03:13:13.899Z,13.07
2019-03-19T03:15:42.933Z,17.20
2019-03-19T03:18:11.728Z,13.93
2019-03-19T03:20:40.585Z,13.43
2019-03-19T03:23:09.388Z,9.43
2019-03-19T03:25:38.180Z,14.33
2019-03-19T03:28:07.095Z,19.17
2019-03-19T03:33:21.430Z,6.13
2019-03-19T03:35:50.337Z,15.20
2019-03-19T03:38:19.246Z,11.83
2019-03-19T03:40:48.164Z,24.83
2019-03-19T03:43:17.206Z,17.27
2019-03-19T03:45:46.029Z,10.67
2019-03-19T03:48:14.905Z,14.97
2019-03-19T03:50:43.788Z,16.80
2019-03-19T03:53:12.614Z,9.63
2019-03-19T03:55:41.469Z,17.07
2019-03-19T03:58:10.241Z,19.47
2019-03-19T04:00:39.167Z,11.60
2019-03-19T04:03:08.080Z,10.77
2019-03-19T04:05:36.969Z,10.00
2019-03-19T04:08:05.846Z,8.07
2019-03-19T04:10:34.640Z,10.13
2019-03-19T04:13:03.469Z,12.57
2019-03-19T04:15:32.382Z,14.90
2019-03-19T04:18:01.277Z,17.03
2019-03-19T04:20:30.237Z,11.17
2019-03-19T04:22:59.000Z,16.47
2019-03-19T04:25:27.944Z,14.10
2019-03-19T04:27:57.263Z,19.83
2019-03-19T04:30:26.075Z,11.97
2019-03-19T04:32:54.880Z,18.00
2019-03-19T04:35:23.717Z,11.27
2019-03-19T04:37:52.559Z,18.03
2019-03-19T04:40:21.537Z,13.97
2019-03-19T04:42:50.461Z,12.70
2019-03-19T04:45:19.397Z,15.27
2019-03-19T04:47:48.246Z,14.03
2019-03-19T04:50:17.034Z,16.00
2019-03-19T04:52:45.914Z,15.07
2019-03-19T04:55:15.076Z,10.57
2019-03-19T04:57:44.108Z,10.67
2019-03-19T05:00:13.067Z,12.03
2019-03-19T05:02:42.008Z,12.80
2019-03-19T05:05:10.895Z,16.13
2019-03-19T05:07:39.850Z,10.73
2019-03-19T05:10:10.464Z,11.00
2019-03-19T05:12:39.639Z,13.90
2019-03-19T05:15:08.844Z,16.30
2019-03-19T05:17:37.648Z,12.40
2019-03-19T05:20:06.987Z,12.27
2019-03-19T05:22:35.829Z,11.47
2019-03-19T05:25:05.039Z,8.20
2019-03-19T05:27:37.660Z,13.67
2019-03-19T05:30:05.021Z,10.50
2019-03-19T05:32:33.842Z,11.40
2019-03-19T05:35:02.692Z,8.07
2019-03-19T05:37:31.531Z,10.50
2019-03-19T05:40:00.349Z,12.80
2019-03-19T05:42:29.184Z,15.03
2019-03-19T05:44:58.237Z,9.83
2019-03-19T05:53:51.918Z,14.20
2019-03-19T05:56:20.727Z,9.70
2019-03-19T05:58:49.721Z,10.73
2019-03-19T06:01:18.655Z,8.50
2019-03-19T06:03:47.449Z,7.70
2019-03-19T06:06:16.279Z,10.33
2019-03-19T06:08:45.232Z,9.17
2019-03-19T06:11:14.044Z,11.83
2019-03-19T06:13:42.909Z,9.50
2019-03-19T06:16:11.803Z,11.27
2019-03-19T06:18:40.725Z,11.70
2019-03-19T06:21:09.854Z,14.20
2019-03-19T06:23:38.685Z,8.73
2019-03-19T06:26:07.498Z,14.17
2019-03-19T06:28:36.610Z,14.90
2019-03-19T06:31:05.564Z,9.50
2019-03-19T06:33:34.408Z,15.20
2019-03-19T06:36:03.312Z,11.20
2019-03-19T06:38:32.221Z,14.20
2019-03-19T06:41:01.082Z,14.50
2019-03-19T06:43:30.050Z,11.27
2019-03-19T06:45:58.852Z,13.17
2019-03-19T06:48:27.682Z,12.93
2019-03-19T06:50:56.502Z,14.93
2019-03-19T07:09:35.423Z,15.97
2019-03-19T07:12:17.724Z,13.03
2019-03-19T07:15:18.503Z,13.03
2019-03-19T07:18:12.170Z,9.97
2019-03-19T07:20:41.056Z,14.20
2019-03-19T07:23:10.240Z,14.07
2019-03-19T07:25:39.185Z,10.73
2019-03-19T07:28:08.185Z,17.83
2019-03-19T07:30:37.208Z,12.43
2019-03-19T07:33:06.123Z,7.90
2019-03-19T07:35:35.126Z,11.00
2019-03-19T07:38:06.798Z,15.23
2019-03-19T07:40:35.746Z,11.60
2019-03-19T07:43:04.702Z,15.37
2019-03-19T07:45:33.821Z,14.60
2019-03-19T07:48:02.543Z,15.03
2019-03-19T07:50:31.505Z,9.60
2019-03-19T07:53:00.313Z,12.83
2019-03-19T07:55:29.456Z,11.03
2019-03-19T07:57:58.527Z,7.17
2019-03-19T08:00:27.597Z,12.93
2019-03-19T08:02:56.450Z,11.33
2019-03-19T08:05:32.984Z,9.33
2019-03-19T08:07:56.156Z,9.97
2019-03-19T08:10:25.367Z,13.00
2019-03-19T08:12:54.347Z,9.37
2019-03-19T08:15:34.513Z,11.07
2019-03-19T08:18:03.413Z,11.80
2019-03-19T08:20:32.298Z,9.63
2019-03-19T08:23:01.106Z,7.63
2019-03-19T08:25:29.924Z,10.20
2019-03-19T08:27:59.166Z,6.20
2019-03-19T08:30:28.275Z,8.63
2019-03-19T08:32:59.431Z,10.27
2019-03-19T08:35:28.480Z,12.23
2019-03-19T08:37:57.402Z,8.47
2019-03-19T08:40:27.311Z,8.37
2019-03-19T08:42:58.204Z,10.97
2019-03-19T08:45:26.998Z,7.77
2019-03-19T08:47:55.873Z,12.07
2019-03-19T08:50:25.506Z,9.00
2019-03-19T08:52:55.608Z,9.63
2019-03-19T08:55:25.819Z,9.17
2019-03-19T08:57:54.663Z,9.03
2019-03-19T09:00:23.772Z,11.13
2019-03-19T09:02:52.662Z,9.40
2019-03-19T09:05:21.636Z,10.43
2019-03-19T09:07:50.905Z,11.10
2019-03-19T09:10:19.909Z,15.60
2019-03-19T09:12:49.141Z,8.67
2019-03-19T09:15:18.112Z,8.50
2019-03-19T09:17:47.338Z,13.50
2019-03-19T09:20:16.325Z,8.07
2019-03-19T09:22:45.333Z,9.67
2019-03-19T09:25:14.353Z,13.10
2019-03-19T09:27:43.453Z,7.63
2019-03-19T09:30:14.580Z,7.37
2019-03-19T09:32:43.634Z,7.10
2019-03-19T09:35:12.673Z,9.37
2019-03-19T09:37:44.830Z,10.50
2019-03-19T09:40:13.327Z,6.77
2019-03-19T09:42:42.373Z,7.27
2019-03-19T09:45:11.829Z,9.83
2019-03-19T09:47:41.714Z,7.73
2019-03-19T09:50:11.789Z,11.07
2019-03-19T09:52:40.846Z,8.90
2019-03-19T09:55:10.524Z,9.87
2019-03-19T09:57:39.405Z,5.20
2019-03-19T10:00:10.755Z,6.67
2019-03-19T10:02:39.719Z,7.93
2019-03-19T10:05:08.783Z,4.80
2019-03-19T10:07:37.569Z,9.63
2019-03-19T10:10:07.117Z,10.53
2019-03-19T10:12:36.049Z,4.80
2019-03-19T10:15:05.631Z,3.47
2019-03-19T10:17:34.522Z,9.47
2019-03-19T10:20:05.323Z,6.90
2019-03-19T10:22:34.375Z,6.17
2019-03-19T10:25:03.311Z,8.33
2019-03-19T10:27:32.364Z,6.40
2019-03-19T10:30:01.361Z,5.47
2019-03-19T10:32:30.254Z,9.80
2019-03-19T10:35:00.445Z,9.30
2019-03-19T10:37:29.261Z,6.97
2019-03-19T10:39:58.164Z,5.50
2019-03-19T10:42:27.516Z,5.53
2019-03-19T10:44:56.358Z,6.50
2019-03-19T10:47:25.278Z,6.13
2019-03-19T10:49:54.157Z,7.13
2019-03-19T10:52:22.961Z,4.33
2019-03-19T10:54:51.760Z,6.43
2019-03-19T10:57:20.747Z,3.83
2019-03-19T10:59:53.403Z,5.90
2019-03-19T11:02:22.285Z,4.73
2019-03-19T11:04:51.193Z,4.40
2019-03-19T11:07:20.023Z,6.87
2019-03-19T11:09:48.880Z,7.43
2019-03-19T11:12:17.714Z,6.50
2019-03-19T11:14:46.586Z,4.47
2019-03-19T11:17:15.491Z,3.13
2019-03-19T11:19:44.355Z,5.77
2019-03-19T11:22:13.182Z,5.97
2019-03-19T11:24:42.178Z,9.03
2019-03-19T11:27:11.027Z,10.93
2019-03-19T11:29:39.881Z,4.10
2019-03-19T11:32:08.871Z,3.40
2019-03-19T11:34:37.714Z,5.67
2019-03-19T11:37:06.549Z,4.50
2019-03-19T11:39:35.458Z,4.20
2019-03-19T11:42:04.702Z,7.37
2019-03-19T11:44:33.582Z,8.60
2019-03-19T11:47:02.492Z,5.50
2019-03-19T11:49:31.364Z,5.53
2019-03-19T11:52:00.264Z,4.53
2019-03-19T11:54:29.352Z,5.30
2019-03-19T11:56:58.261Z,9.07
2019-03-19T11:59:27.323Z,5.90
2019-03-19T12:01:56.169Z,8.13
2019-03-19T12:04:25.816Z,7.67
2019-03-19T12:06:54.729Z,7.00
2019-03-19T12:09:23.484Z,8.00
2019-03-19T12:11:52.279Z,4.50
2019-03-19T12:14:21.147Z,6.60
2019-03-19T12:16:50.199Z,2.90
2019-03-19T12:19:19.136Z,6.80
2019-03-19T12:21:47.957Z,8.47
2019-03-19T12:24:16.815Z,6.27
2019-03-19T12:26:45.655Z,2.90
2019-03-19T12:29:14.513Z,6.47
2019-03-19T12:31:43.452Z,8.70
2019-03-19T12:34:12.363Z,6.20
2019-03-19T12:36:41.433Z,7.17
2019-03-19T12:39:10.307Z,9.83
2019-03-19T12:41:39.392Z,6.77
2019-03-19T12:44:08.282Z,5.77
2019-03-19T12:46:37.354Z,5.40
2019-03-19T12:49:08.948Z,3.67
2019-03-19T12:51:37.958Z,4.07
2019-03-19T12:54:06.830Z,6.10
2019-03-19T12:56:35.669Z,6.37
2019-03-19T12:59:04.578Z,10.40
2019-03-19T13:01:34.686Z,4.47
2019-03-19T13:04:04.035Z,6.50
2019-03-19T13:06:33.179Z,3.83
2019-03-19T13:09:02.576Z,5.97
2019-03-19T13:11:37.764Z,4.50
2019-03-19T13:14:06.736Z,7.27
2019-03-19T13:16:35.627Z,6.77
2019-03-19T13:19:06.078Z,10.67
2019-03-19T13:21:35.300Z,6.27
2019-03-19T13:24:04.241Z,7.20
2019-03-19T13:26:33.838Z,5.37
2019-03-19T13:29:02.772Z,7.63
2019-03-19T13:31:31.872Z,4.37
2019-03-19T13:34:03.271Z,3.97
2019-03-19T13:36:32.340Z,4.73
2019-03-19T13:39:01.288Z,5.73
2019-03-19T13:41:30.295Z,10.60
2019-03-19T13:43:59.151Z,7.60
2019-03-19T13:46:28.053Z,4.97
2019-03-19T13:48:56.906Z,5.03
2019-03-19T13:51:25.970Z,6.03
2019-03-19T13:53:54.977Z,3.17
2019-03-19T13:56:23.876Z,6.17
2019-03-19T13:58:52.704Z,6.90
2019-03-19T14:01:21.556Z,5.10
2019-03-19T14:03:50.553Z,6.83
2019-03-19T14:06:20.816Z,6.50
2019-03-19T14:08:49.781Z,5.83
2019-03-19T14:11:18.972Z,6.30
2019-03-19T14:13:47.854Z,7.67
2019-03-19T14:16:16.776Z,6.17
2019-03-19T14:18:45.641Z,9.73
2019-03-19T14:21:14.513Z,6.63
2019-03-19T14:23:43.443Z,5.77
2019-03-19T14:26:12.343Z,7.87
2019-03-19T14:28:41.188Z,6.23
2019-03-19T14:31:10.011Z,6.27
2019-03-19T14:33:38.845Z,4.67
2019-03-19T14:36:10.216Z,7.20
2019-03-19T14:38:46.780Z,5.30
2019-03-19T14:41:09.389Z,5.77
2019-03-19T14:43:38.240Z,9.40
2019-03-19T14:46:07.183Z,6.40
2019-03-19T14:48:36.035Z,10.93
2019-03-19T14:51:05.028Z,7.43
2019-03-19T14:53:34.006Z,6.47
2019-03-19T14:56:02.869Z,7.60
2019-03-19T14:58:32.124Z,5.33
2019-03-19T15:01:01.073Z,6.43
2019-03-19T15:03:29.995Z,4.83
2019-03-19T15:06:00.211Z,4.07
2019-03-19T15:08:29.031Z,7.37
2019-03-19T15:10:57.975Z,7.60
2019-03-19T15:13:27.184Z,6.37
2019-03-19T15:15:56.038Z,6.10
2019-03-19T15:18:24.884Z,8.33
2019-03-19T15:20:53.785Z,5.50
2019-03-19T15:23:22.758Z,6.93
2019-03-19T15:25:51.615Z,5.10
2019-03-19T15:28:20.421Z,6.07
2019-03-19T15:30:52.776Z,5.30
2019-03-19T15:33:22.012Z,8.50
2019-03-19T15:35:50.886Z,4.77
2019-03-19T15:38:19.712Z,6.40
2019-03-19T15:40:48.549Z,7.73
2019-03-19T15:43:17.612Z,4.50
2019-03-19T15:45:46.549Z,6.13
2019-03-19T15:48:16.464Z,6.93
2019-03-19T15:50:45.407Z,4.07
2019-03-19T15:53:14.259Z,6.93
2019-03-19T15:55:43.430Z,6.90
2019-03-19T15:58:12.385Z,5.03
2019-03-19T16:00:41.326Z,7.43
2019-03-19T16:03:10.625Z,7.07
2019-03-19T16:05:39.499Z,3.70
2019-03-19T16:08:08.432Z,4.73
2019-03-19T16:10:37.333Z,6.40
2019-03-19T16:13:06.372Z,9.40
2019-03-19T16:15:35.283Z,5.40
2019-03-19T16:18:04.360Z,7.17
2019-03-19T16:20:37.554Z,8.77
2019-03-19T16:23:06.550Z,4.10
2019-03-19T16:25:35.377Z,5.80
2019-03-19T16:28:04.469Z,5.87
2019-03-19T16:30:33.411Z,4.93
2019-03-19T16:33:02.476Z,3.97
2019-03-19T16:35:31.524Z,7.27
2019-03-19T16:38:00.391Z,5.57
2019-03-19T16:40:29.893Z,7.40
2019-03-19T16:42:58.904Z,7.87
2019-03-19T16:45:27.941Z,5.53
2019-03-19T16:47:56.807Z,6.10
2019-03-19T16:50:25.653Z,4.47
2019-03-19T16:52:54.698Z,6.47
2019-03-19T16:55:23.822Z,3.80
2019-03-19T16:57:52.687Z,6.23
2019-03-19T17:00:21.816Z,10.53
2019-03-19T17:02:50.830Z,8.10
2019-03-19T17:05:23.953Z,6.77
2019-03-19T17:11:40.752Z,3.17
2019-03-19T17:14:09.639Z,4.47
2019-03-19T17:16:39.169Z,7.10
2019-03-19T17:19:08.365Z,7.20
2019-03-19T17:21:41.684Z,9.40
2019-03-19T17:24:10.703Z,10.00
2019-03-19T17:26:42.913Z,7.20
2019-03-19T17:29:11.726Z,9.17
2019-03-19T17:31:40.588Z,4.70
2019-03-19T17:34:09.544Z,7.57
2019-03-19T17:36:48.065Z,7.37
2019-03-19T17:39:22.686Z,7.13
2019-03-19T17:41:56.860Z,7.83
2019-03-19T18:00:24.244Z,6.10
2019-03-19T18:02:57.536Z,6.47
2019-03-19T18:05:27.095Z,6.47
2019-03-19T18:07:56.669Z,7.83
2019-03-19T18:10:25.971Z,8.37
2019-03-19T18:12:57.334Z,6.13
2019-03-19T18:15:26.954Z,10.80
2019-03-19T18:17:57.394Z,4.47
2019-03-19T18:20:26.897Z,3.10
2019-03-19T18:22:56.420Z,5.80
2019-03-19T18:25:25.305Z,4.53
2019-03-19T18:27:56.725Z,7.00
2019-03-19T18:30:25.738Z,4.23
2019-03-19T18:32:54.761Z,9.10
2019-03-19T18:35:23.666Z,8.40
2019-03-19T18:37:52.806Z,7.40
2019-03-19T18:40:22.046Z,5.77
2019-03-19T18:42:50.947Z,6.90
2019-03-19T18:45:21.530Z,5.57
2019-03-19T18:47:50.506Z,9.10
2019-03-19T18:50:19.501Z,5.07
2019-03-19T18:52:48.842Z,8.20
2019-03-19T18:55:18.311Z,10.93
2019-03-19T18:57:47.314Z,7.30
2019-03-19T19:00:16.412Z,5.63
2019-03-19T19:02:50.097Z,8.87
2019-03-19T19:05:16.426Z,8.57
2019-03-19T19:07:45.292Z,5.20
2019-03-19T19:10:14.300Z,4.57
2019-03-19T19:12:43.213Z,10.27
2019-03-19T19:15:13.716Z,6.43
2019-03-19T19:17:42.673Z,8.20
2019-03-19T19:20:11.814Z,10.60
2019-03-19T19:22:40.751Z,6.67
2019-03-19T19:25:12.678Z,4.43
2019-03-19T19:27:41.572Z,6.50
2019-03-19T19:30:13.155Z,8.57
2019-03-19T19:32:42.062Z,4.07
2019-03-19T19:35:11.153Z,8.23
2019-03-19T19:37:40.107Z,5.07
2019-03-19T19:40:11.619Z,7.73
2019-03-19T19:42:40.626Z,6.37
2019-03-19T19:45:09.666Z,7.13
2019-03-19T19:47:38.616Z,6.43
2019-03-19T19:50:10.366Z,4.23
2019-03-19T19:52:39.259Z,6.93
2019-03-19T19:55:09.007Z,7.27
2019-03-19T19:57:37.937Z,5.10
2019-03-19T20:00:08.289Z,6.60
2019-03-19T20:02:37.693Z,7.53
2019-03-19T20:05:07.062Z,6.53
2019-03-19T20:07:36.178Z,7.67
2019-03-19T20:10:06.883Z,8.93
2019-03-19T20:12:37.175Z,4.50
2019-03-19T20:15:06.589Z,6.77
2019-03-19T20:17:35.423Z,7.10
2019-03-19T20:20:29.036Z,9.00
2019-03-19T20:23:03.073Z,5.30
2019-03-19T20:25:31.854Z,7.07
2019-03-19T20:28:01.159Z,10.03
2019-03-19T20:30:30.119Z,5.23
2019-03-19T20:32:58.944Z,6.87
2019-03-19T20:35:27.824Z,8.10
2019-03-19T20:37:56.736Z,6.80
2019-03-19T20:40:26.647Z,7.57
2019-03-19T20:42:58.825Z,7.23
2019-03-19T20:45:27.656Z,11.07
2019-03-19T20:47:56.789Z,10.90
2019-03-19T20:50:27.142Z,9.90
2019-03-19T20:52:56.208Z,6.40
2019-03-19T20:55:25.183Z,7.80
2019-03-19T20:57:54.124Z,5.90
2019-03-19T21:00:22.919Z,6.80
2019-03-19T21:02:51.749Z,8.13
2019-03-19T21:05:20.670Z,8.10
2019-03-19T21:07:49.884Z,9.90
2019-03-19T21:10:19.328Z,7.00
2019-03-19T21:12:48.551Z,7.57
2019-03-19T21:15:23.440Z,8.73
2019-03-19T21:17:52.542Z,4.43
2019-03-19T21:20:21.413Z,7.97
2019-03-19T21:22:50.362Z,10.40
2019-03-19T21:25:19.482Z,12.43
2019-03-19T21:27:48.499Z,8.90
2019-03-19T21:30:17.550Z,8.40
2019-03-19T21:32:46.908Z,10.57
2019-03-19T21:35:20.843Z,8.00
2019-03-19T21:37:51.892Z,6.00
2019-03-19T21:40:43.662Z,8.53
2019-03-19T21:43:13.054Z,9.50
2019-03-19T21:45:42.238Z,6.83
2019-03-19T21:48:11.066Z,15.03
2019-03-19T21:50:46.111Z,11.70
2019-03-19T21:53:15.051Z,12.40
2019-03-19T21:55:44.056Z,10.00
2019-03-19T21:58:13.067Z,8.03
2019-03-19T22:00:44.845Z,15.60
2019-03-19T22:03:13.745Z,12.37
2019-03-19T22:05:42.780Z,9.07
2019-03-19T22:08:11.718Z,10.77
2019-03-19T22:10:40.745Z,14.80
2019-03-19T22:13:09.558Z,15.83
2019-03-19T22:15:38.600Z,12.70
2019-03-19T22:18:07.657Z,10.23
2019-03-19T22:20:36.909Z,13.53
2019-03-19T22:23:05.880Z,14.43
2019-03-19T22:25:34.678Z,16.53
2019-03-19T22:28:07.067Z,14.43
2019-03-19T22:30:37.332Z,17.37
2019-03-19T22:33:06.266Z,15.93
2019-03-19T22:35:35.581Z,13.30
2019-03-19T22:38:04.519Z,17.60
2019-03-19T22:40:33.577Z,16.50
2019-03-19T22:43:02.471Z,17.03
2019-03-19T22:45:31.374Z,14.70
2019-03-19T22:48:00.254Z,14.67
2019-03-19T22:50:29.099Z,16.53
2019-03-19T22:52:57.996Z,15.37
2019-03-19T22:55:30.686Z,13.60
2019-03-19T22:57:59.605Z,14.53
2019-03-19T23:00:47.852Z,17.57
2019-03-19T23:03:16.890Z,19.13
2019-03-19T23:05:45.711Z,16.23
2019-03-19T23:08:15.796Z,19.17
2019-03-19T23:10:44.710Z,15.10
2019-03-19T23:13:13.816Z,15.53
2019-03-19T23:15:44.218Z,14.60
2019-03-19T23:18:13.246Z,13.50
2019-03-19T23:20:42.106Z,13.87
2019-03-19T23:23:10.969Z,10.73
2019-03-19T23:25:39.941Z,12.53
2019-03-19T23:28:08.747Z,19.07
2019-03-19T23:30:37.918Z,10.80
2019-03-19T23:33:07.437Z,13.23
2019-03-19T23:35:36.432Z,13.43
2019-03-19T23:38:05.346Z,11.47
2019-03-19T23:40:34.201Z,15.80
2019-03-19T23:43:03.159Z,9.30
2019-03-19T23:45:32.204Z,10.33
2019-03-19T23:48:01.082Z,8.53
2019-03-19T23:50:29.893Z,12.37
2019-03-19T23:52:58.805Z,11.53
2019-03-19T23:55:27.635Z,11.37
2019-03-19T23:57:56.488Z,10.40
